Time;durP1;ratioP1;P1;durP2;ratioP2;P2;SDS_P1;SDS_P2;PMS_P1;PMS_P2;Temp;Humidity;BMP_temperature;BMP_pressure;BME280_temperature;BME280_humidity;BME280_pressure;Samples;Min_cycle;Max_cycle;Signal;HPM_P1;HPM_P2
2022/11/14 00:01:58;;;;;;;7.07;5.03;;;15.30;65.00;;;;;;5012672;28;20050;-71
2022/11/14 00:04:24;;;;;;;5.93;5.03;;;15.30;65.00;;;;;;5012125;28;20120;-70
2022/11/14 00:06:51;;;;;;;7.30;5.00;;;15.30;65.00;;;;;;5013276;28;20056;-72
2022/11/14 00:09:18;;;;;;;5.93;4.70;;;15.30;64.90;;;;;;5011608;28;20092;-71
2022/11/14 00:11:44;;;;;;;6.80;5.03;;;15.40;65.00;;;;;;5012523;28;20513;-72
2022/11/14 00:14:13;;;;;;;6.75;5.20;;;15.30;64.90;;;;;;5011362;28;20056;-72
2022/11/14 00:16:39;;;;;;;5.80;4.93;;;15.30;64.90;;;;;;5011809;28;20064;-72
2022/11/14 00:19:06;;;;;;;6.30;4.80;;;15.40;65.00;;;;;;5013057;28;20056;-72
2022/11/14 00:21:33;;;;;;;7.00;5.10;;;15.40;65.00;;;;;;5011305;28;20502;-72
2022/11/14 00:23:59;;;;;;;6.45;5.20;;;15.40;65.00;;;;;;5019118;28;20071;-72
2022/11/14 00:26:26;;;;;;;7.13;5.35;;;15.40;65.00;;;;;;5031372;28;20053;-72
2022/11/14 00:28:54;;;;;;;6.03;5.10;;;15.40;65.00;;;;;;5032779;28;20069;-71
2022/11/14 00:31:22;;;;;;;6.22;5.03;;;15.40;65.00;;;;;;5032040;28;20045;-71
2022/11/14 00:33:48;;;;;;;6.43;4.95;;;15.40;65.00;;;;;;5031059;28;20054;-70
2022/11/14 00:36:15;;;;;;;6.65;5.07;;;15.40;65.00;;;;;;5031365;28;20061;-72
2022/11/14 00:38:42;;;;;;;7.72;5.35;;;15.40;65.00;;;;;;5032490;28;20578;-72
2022/11/14 00:41:08;;;;;;;6.97;5.75;;;15.40;65.00;;;;;;5030292;28;20049;-70
2022/11/14 00:43:35;;;;;;;6.55;5.20;;;15.40;65.00;;;;;;5030954;28;20076;-72
2022/11/14 00:46:02;;;;;;;6.65;5.35;;;15.40;65.00;;;;;;5031046;28;20049;-72
2022/11/14 00:48:30;;;;;;;7.68;5.78;;;15.40;65.00;;;;;;5030477;28;20251;-72
2022/11/14 00:50:57;;;;;;;7.68;5.70;;;15.40;65.00;;;;;;5030512;28;20136;-72
2022/11/14 00:53:23;;;;;;;7.03;5.97;;;15.40;65.00;;;;;;5030364;28;20050;-72
2022/11/14 00:55:50;;;;;;;8.05;6.00;;;15.40;65.00;;;;;;5032084;28;20393;-72
2022/11/14 00:58:17;;;;;;;7.25;5.47;;;15.40;65.00;;;;;;5032015;28;20056;-72
2022/11/14 01:00:43;;;;;;;8.95;6.18;;;15.40;65.00;;;;;;5031489;28;20055;-71
2022/11/14 01:03:10;;;;;;;8.45;6.57;;;15.40;65.00;;;;;;5030872;28;20045;-71
2022/11/14 01:05:42;;;;;;;7.03;5.75;;;15.40;65.00;;;;;;5031964;28;20055;-72
2022/11/14 01:08:08;;;;;;;8.15;6.00;;;15.40;65.50;;;;;;5030486;28;20057;-68
2022/11/14 01:10:38;;;;;;;7.30;5.80;;;15.40;65.10;;;;;;5010329;28;20065;-72
2022/11/14 01:13:04;;;;;;;8.23;6.68;;;15.40;65.60;;;;;;5011999;28;20046;-71
2022/11/14 01:15:31;;;;;;;8.45;6.57;;;14.90;67.50;;;;;;5011154;28;20499;-72
2022/11/14 01:17:58;;;;;;;9.18;6.18;;;15.40;65.10;;;;;;5010659;28;20053;-72
2022/11/14 01:20:25;;;;;;;8.65;6.53;;;15.40;65.00;;;;;;5015433;28;20145;-72
2022/11/14 01:22:53;;;;;;;8.57;6.28;;;15.40;65.00;;;;;;5011822;28;20049;-72
2022/11/14 01:25:20;;;;;;;8.13;6.65;;;15.40;65.00;;;;;;5010996;28;20053;-72
2022/11/14 01:27:46;;;;;;;7.82;6.63;;;15.40;65.00;;;;;;5011093;28;20487;-72
2022/11/14 01:30:14;;;;;;;8.38;6.72;;;15.30;65.00;;;;;;5011504;28;20053;-72
2022/11/14 01:32:40;;;;;;;8.43;6.70;;;15.40;65.00;;;;;;5011530;28;20050;-72
2022/11/14 01:35:08;;;;;;;9.13;6.97;;;15.30;65.00;;;;;;5010882;28;20088;-71
2022/11/14 01:37:34;;;;;;;10.15;7.43;;;15.30;65.00;;;;;;5012099;28;20052;-72
2022/11/14 01:40:02;;;;;;;8.70;6.97;;;15.30;65.00;;;;;;5011302;28;20050;-72
2022/11/14 01:42:29;;;;;;;7.32;6.20;;;15.30;65.00;;;;;;5011497;28;20049;-72
2022/11/14 01:44:56;;;;;;;8.82;6.80;;;15.30;65.00;;;;;;5010630;28;20053;-72
2022/11/14 01:47:23;;;;;;;8.45;6.95;;;15.30;65.00;;;;;;5011884;28;20084;-72
2022/11/14 01:49:53;;;;;;;9.55;7.47;;;15.30;65.00;;;;;;5011082;28;20064;-72
2022/11/14 01:52:21;;;;;;;10.90;7.45;;;15.30;64.90;;;;;;5011110;28;20137;-72
2022/11/14 01:54:49;;;;;;;9.02;7.10;;;15.30;64.90;;;;;;5011672;28;20042;-72
2022/11/14 01:57:18;;;;;;;10.30;8.02;;;15.30;64.90;;;;;;5011841;28;20052;-71
2022/11/14 01:59:50;;;;;;;8.55;7.07;;;15.30;64.90;;;;;;5013752;28;20229;-70
2022/11/14 02:02:18;;;;;;;10.60;8.15;;;15.30;64.90;;;;;;5013708;28;20064;-71
2022/11/14 02:04:47;;;;;;;9.38;7.38;;;15.40;64.90;;;;;;5015321;28;20484;-70
2022/11/14 02:07:13;;;;;;;8.52;7.15;;;15.30;64.90;;;;;;5014060;28;20058;-71
2022/11/14 02:09:42;;;;;;;9.75;7.65;;;15.30;64.90;;;;;;5014971;28;20053;-71
2022/11/14 02:12:11;;;;;;;9.93;7.65;;;15.40;64.90;;;;;;5014560;28;20052;-72
2022/11/14 02:14:39;;;;;;;10.00;7.97;;;15.30;64.90;;;;;;5014116;28;20402;-71
2022/11/14 02:17:06;;;;;;;9.68;7.95;;;15.30;64.90;;;;;;5026901;28;20080;-71
2022/11/14 02:19:43;;;;;;;9.57;7.63;;;15.40;64.90;;;;;;5035318;28;20410;-72
2022/11/14 02:22:11;;;;;;;9.07;7.20;;;15.40;64.90;;;;;;5034533;28;20152;-71
2022/11/14 02:24:38;;;;;;;9.50;7.53;;;15.40;64.90;;;;;;5033697;28;20061;-71
2022/11/14 02:27:05;;;;;;;9.48;7.90;;;15.30;64.90;;;;;;5033777;28;20057;-71
2022/11/14 02:29:32;;;;;;;9.95;8.00;;;15.30;64.90;;;;;;5034968;28;20071;-72
2022/11/14 02:31:58;;;;;;;10.15;7.45;;;15.30;64.90;;;;;;5033969;28;20052;-72
2022/11/14 02:34:27;;;;;;;10.15;8.00;;;15.30;64.90;;;;;;5034732;28;20053;-72
2022/11/14 02:36:54;;;;;;;9.20;7.75;;;15.40;64.90;;;;;;5034708;28;20050;-69
2022/11/14 02:39:22;;;;;;;9.73;8.05;;;15.40;64.90;;;;;;5033392;28;20057;-71
2022/11/14 02:41:49;;;;;;;9.30;7.53;;;15.40;64.90;;;;;;5033145;28;20057;-72
2022/11/14 02:44:16;;;;;;;9.75;7.88;;;15.40;64.90;;;;;;5033218;28;20283;-70
2022/11/14 02:46:43;;;;;;;9.70;8.13;;;15.30;64.90;;;;;;5034595;28;20065;-71
2022/11/14 02:49:09;;;;;;;8.90;7.45;;;15.40;64.90;;;;;;5033184;28;20059;-72
2022/11/14 02:51:36;;;;;;;10.63;7.82;;;15.40;64.90;;;;;;5032799;28;20152;-71
2022/11/14 02:54:03;;;;;;;10.27;8.23;;;15.40;64.90;;;;;;5034203;28;20557;-72
2022/11/14 02:56:31;;;;;;;10.23;7.93;;;15.40;64.90;;;;;;5033214;28;20065;-72
2022/11/14 02:58:58;;;;;;;8.43;7.35;;;15.40;64.90;;;;;;5034145;28;20067;-71
2022/11/14 03:01:25;;;;;;;9.80;8.07;;;15.40;64.90;;;;;;5033787;28;20054;-71
2022/11/14 03:03:51;;;;;;;10.27;8.13;;;15.40;64.90;;;;;;5034329;28;20041;-72
2022/11/14 03:06:18;;;;;;;9.98;8.10;;;15.40;64.90;;;;;;5032777;28;20060;-72
2022/11/14 03:08:45;;;;;;;10.48;8.40;;;15.40;64.90;;;;;;5026975;28;20053;-71
2022/11/14 03:11:11;;;;;;;9.65;8.20;;;15.40;64.90;;;;;;5011776;28;20414;-72
2022/11/14 03:13:39;;;;;;;9.73;8.35;;;15.40;64.90;;;;;;5027023;28;20050;-72
2022/11/14 03:16:07;;;;;;;9.18;7.43;;;15.40;64.90;;;;;;5033847;28;20049;-72
2022/11/14 03:18:33;;;;;;;9.57;7.95;;;15.40;64.90;;;;;;5033686;28;20045;-71
2022/11/14 03:21:05;;;;;;;10.63;8.32;;;15.40;64.90;;;;;;5033498;28;20402;-72
2022/11/14 03:23:32;;;;;;;9.77;8.30;;;15.40;64.90;;;;;;5032803;28;20426;-71
2022/11/14 03:26:00;;;;;;;11.40;9.00;;;15.40;65.00;;;;;;5032585;28;20616;-72
2022/11/14 03:28:27;;;;;;;9.52;8.23;;;15.40;64.90;;;;;;5033873;28;20089;-72
2022/11/14 03:30:55;;;;;;;12.43;8.27;;;15.30;64.90;;;;;;5031897;28;20087;-71
2022/11/14 03:33:22;;;;;;;10.05;8.30;;;15.40;64.90;;;;;;5032539;28;20499;-72
2022/11/14 03:35:49;;;;;;;10.50;8.43;;;15.40;65.00;;;;;;5031990;28;20053;-72
2022/11/14 03:38:16;;;;;;;10.50;8.38;;;15.40;64.90;;;;;;5033254;28;20049;-70
2022/11/14 03:40:43;;;;;;;10.02;8.25;;;15.40;64.90;;;;;;5032971;28;20054;-71
2022/11/14 03:43:09;;;;;;;9.40;8.07;;;15.40;64.90;;;;;;5033665;28;20050;-72
2022/11/14 03:45:36;;;;;;;9.20;8.10;;;15.40;64.90;;;;;;5033421;28;20071;-71
2022/11/14 03:48:05;;;;;;;11.60;8.45;;;15.40;64.90;;;;;;5031750;28;20076;-72
2022/11/14 03:50:32;;;;;;;10.25;8.85;;;15.40;64.90;;;;;;5031531;28;20117;-72
2022/11/14 03:52:58;;;;;;;9.60;8.25;;;15.40;64.90;;;;;;5032335;28;20057;-71
2022/11/14 03:55:25;;;;;;;11.70;8.95;;;15.40;64.90;;;;;;5031822;28;20513;-72
2022/11/14 03:57:52;;;;;;;9.38;7.80;;;15.40;64.90;;;;;;5031639;28;20057;-72
2022/11/14 04:00:19;;;;;;;9.43;8.13;;;15.40;64.90;;;;;;5032666;28;20128;-72
2022/11/14 04:02:46;;;;;;;9.73;8.02;;;15.40;64.90;;;;;;5033091;28;20072;-72
2022/11/14 04:05:14;;;;;;;9.80;7.82;;;15.40;64.90;;;;;;5033196;28;20042;-71
2022/11/14 04:07:41;;;;;;;10.48;8.68;;;15.40;64.90;;;;;;5032706;28;20059;-71
2022/11/14 04:10:08;;;;;;;9.88;8.13;;;15.40;64.80;;;;;;5030587;28;20069;-71
2022/11/14 04:12:35;;;;;;;11.80;8.30;;;15.40;64.90;;;;;;5032011;28;20507;-72
2022/11/14 04:15:02;;;;;;;9.88;8.27;;;15.40;64.90;;;;;;5033022;28;20483;-71
2022/11/14 04:17:29;;;;;;;10.80;8.80;;;15.40;64.90;;;;;;5032371;28;20052;-72
2022/11/14 04:19:55;;;;;;;9.95;8.32;;;15.40;64.80;;;;;;5032322;28;20049;-69
2022/11/14 04:22:23;;;;;;;9.85;8.35;;;15.40;64.80;;;;;;5032621;28;20384;-70
2022/11/14 04:24:50;;;;;;;10.05;8.02;;;15.40;64.80;;;;;;5032700;28;20063;-70
2022/11/14 04:27:17;;;;;;;10.15;8.32;;;15.40;64.80;;;;;;5032476;28;20053;-70
2022/11/14 04:29:43;;;;;;;10.15;8.13;;;15.40;64.80;;;;;;5032380;28;20045;-71
2022/11/14 04:32:10;;;;;;;9.82;8.23;;;15.40;64.80;;;;;;5031810;28;20053;-71
2022/11/14 04:34:37;;;;;;;9.20;7.90;;;15.40;64.80;;;;;;5031185;28;20067;-70
2022/11/14 04:37:03;;;;;;;9.68;8.30;;;15.40;64.80;;;;;;5032569;28;20051;-71
2022/11/14 04:39:31;;;;;;;10.77;8.98;;;15.40;64.80;;;;;;5031332;28;20140;-70
2022/11/14 04:41:58;;;;;;;10.15;8.43;;;15.40;64.70;;;;;;5032002;28;20053;-70
2022/11/14 04:44:25;;;;;;;9.77;8.30;;;15.40;64.80;;;;;;5032003;28;20060;-71
2022/11/14 04:46:52;;;;;;;10.98;8.77;;;15.40;64.80;;;;;;5032253;28;20136;-70
2022/11/14 04:49:18;;;;;;;9.82;8.50;;;15.40;64.80;;;;;;5031732;28;20083;-70
2022/11/14 04:51:45;;;;;;;10.52;8.35;;;15.40;64.80;;;;;;5031694;28;20053;-70
2022/11/14 04:54:12;;;;;;;10.60;8.10;;;15.40;64.80;;;;;;5032038;28;20045;-71
2022/11/14 04:56:40;;;;;;;10.52;8.77;;;15.40;64.80;;;;;;5013473;28;20049;-71
2022/11/14 04:59:06;;;;;;;10.85;8.63;;;15.40;64.80;;;;;;5011720;28;20049;-71
2022/11/14 05:01:33;;;;;;;9.20;7.90;;;15.40;64.80;;;;;;5011986;28;20465;-70
2022/11/14 05:04:00;;;;;;;9.60;7.95;;;15.40;64.80;;;;;;5012451;28;20050;-70
2022/11/14 05:06:26;;;;;;;9.80;7.85;;;15.40;64.80;;;;;;5027936;28;20053;-71
2022/11/14 05:08:53;;;;;;;10.60;8.68;;;15.40;64.80;;;;;;5024042;28;20487;-70
2022/11/14 05:11:20;;;;;;;10.43;8.45;;;15.40;64.80;;;;;;5010252;28;20057;-70
2022/11/14 05:13:48;;;;;;;9.27;8.10;;;15.40;64.80;;;;;;5012050;28;20176;-70
2022/11/14 05:16:15;;;;;;;9.68;8.20;;;15.40;64.80;;;;;;5012137;28;20050;-71
2022/11/14 05:18:41;;;;;;;10.55;8.45;;;15.40;64.80;;;;;;5011846;28;20383;-70
2022/11/14 05:21:11;;;;;;;9.98;8.65;;;15.40;64.80;;;;;;5011777;28;20053;-70
2022/11/14 05:23:37;;;;;;;9.95;8.18;;;15.40;64.80;;;;;;5010865;28;20057;-70
2022/11/14 05:26:05;;;;;;;10.27;8.25;;;15.40;64.80;;;;;;5011105;28;20053;-70
2022/11/14 05:28:32;;;;;;;10.52;8.48;;;15.40;64.80;;;;;;5010924;28;20137;-71
2022/11/14 05:31:03;;;;;;;9.60;8.07;;;15.40;64.80;;;;;;5010446;28;20491;-70
2022/11/14 05:33:30;;;;;;;9.30;7.97;;;15.40;64.80;;;;;;5011028;28;20057;-71
2022/11/14 05:36:01;;;;;;;10.98;8.48;;;15.40;64.80;;;;;;5016113;28;20247;-71
2022/11/14 05:38:28;;;;;;;10.05;8.38;;;15.40;64.80;;;;;;5015848;28;20054;-71
2022/11/14 05:40:55;;;;;;;11.52;8.30;;;15.40;64.80;;;;;;5015091;28;20132;-71
2022/11/14 05:43:21;;;;;;;10.23;8.35;;;15.40;64.80;;;;;;5016275;28;20053;-71
2022/11/14 05:45:48;;;;;;;10.65;9.07;;;15.40;64.80;;;;;;5014501;28;20048;-71
2022/11/14 05:48:16;;;;;;;10.05;8.25;;;15.40;64.80;;;;;;5015732;28;20068;-71
2022/11/14 05:50:43;;;;;;;10.85;8.60;;;15.40;64.80;;;;;;5014017;28;20060;-71
2022/11/14 05:53:09;;;;;;;11.48;9.30;;;15.40;64.80;;;;;;5014891;28;20530;-71
2022/11/14 05:55:36;;;;;;;10.93;8.45;;;15.40;65.30;;;;;;5025225;28;20041;-71
2022/11/14 05:58:03;;;;;;;10.23;8.20;;;15.40;64.80;;;;;;5034649;28;20140;-71
2022/11/14 06:00:29;;;;;;;9.40;8.13;;;15.40;64.80;;;;;;5033616;28;20509;-71
2022/11/14 06:02:56;;;;;;;10.38;8.45;;;15.40;64.80;;;;;;5034233;28;20055;-70
2022/11/14 06:05:24;;;;;;;11.45;8.77;;;15.40;64.80;;;;;;5035038;28;20430;-71
2022/11/14 06:07:55;;;;;;;10.10;8.43;;;15.40;64.80;;;;;;5034108;28;20057;-71
2022/11/14 06:10:21;;;;;;;10.82;9.10;;;15.40;64.80;;;;;;5016011;28;20050;-71
2022/11/14 06:12:48;;;;;;;10.50;8.27;;;15.40;64.80;;;;;;5014243;28;20068;-70
2022/11/14 06:15:15;;;;;;;10.80;8.65;;;15.40;64.80;;;;;;5014781;28;20137;-71
2022/11/14 06:17:42;;;;;;;11.25;9.20;;;15.40;64.80;;;;;;5015291;28;20046;-71
2022/11/14 06:20:09;;;;;;;11.07;8.25;;;15.40;64.80;;;;;;5014725;28;20050;-70
2022/11/14 06:22:37;;;;;;;10.35;8.32;;;15.40;64.80;;;;;;5014032;28;20058;-71
2022/11/14 06:25:04;;;;;;;10.77;8.07;;;15.40;64.80;;;;;;5014908;28;20049;-71
2022/11/14 06:27:31;;;;;;;10.50;8.30;;;15.40;64.80;;;;;;5014116;28;20408;-70
2022/11/14 06:29:58;;;;;;;11.27;8.50;;;15.40;64.80;;;;;;5013750;28;20586;-71
2022/11/14 06:32:24;;;;;;;10.70;8.60;;;15.40;64.80;;;;;;5015165;28;20060;-70
2022/11/14 06:34:51;;;;;;;10.98;8.38;;;15.40;64.80;;;;;;5014672;28;20045;-71
2022/11/14 06:37:18;;;;;;;9.85;8.02;;;15.40;64.70;;;;;;5014790;28;20104;-70
2022/11/14 06:39:46;;;;;;;12.48;9.45;;;15.50;64.80;;;;;;5014909;28;20052;-70
2022/11/14 06:42:12;;;;;;;11.60;8.68;;;15.40;64.70;;;;;;5013942;28;20484;-70
2022/11/14 06:44:39;;;;;;;11.75;9.07;;;15.50;64.80;;;;;;5014331;28;20080;-71
2022/11/14 06:47:06;;;;;;;11.20;8.68;;;15.40;64.70;;;;;;5015072;28;20049;-70
2022/11/14 06:49:32;;;;;;;10.70;8.63;;;15.50;64.70;;;;;;5014682;28;20396;-71
2022/11/14 06:51:59;;;;;;;10.90;8.60;;;15.50;64.80;;;;;;5012917;28;20068;-71
2022/11/14 06:54:26;;;;;;;11.55;8.63;;;15.40;64.70;;;;;;5014745;28;20137;-70
2022/11/14 06:56:54;;;;;;;11.55;8.93;;;15.50;64.70;;;;;;5034819;28;20414;-70
2022/11/14 06:59:20;;;;;;;11.50;9.13;;;15.50;64.70;;;;;;5013621;28;20056;-71
2022/11/14 07:01:47;;;;;;;11.60;8.80;;;15.50;64.70;;;;;;5013877;28;20133;-72
2022/11/14 07:04:14;;;;;;;11.00;9.05;;;15.50;64.70;;;;;;5014059;28;20427;-71
2022/11/14 07:06:40;;;;;;;10.82;8.15;;;15.50;64.70;;;;;;5014857;28;20048;-71
2022/11/14 07:09:09;;;;;;;12.52;9.25;;;15.40;64.70;;;;;;5013815;28;20495;-72
2022/11/14 07:11:36;;;;;;;12.35;8.93;;;15.50;64.90;;;;;;5012503;28;20061;-72
2022/11/14 07:14:05;;;;;;;10.88;8.65;;;15.50;64.70;;;;;;5013842;28;20049;-71
2022/11/14 07:16:33;;;;;;;12.77;9.52;;;15.50;64.70;;;;;;5014308;28;20513;-71
2022/11/14 07:19:00;;;;;;;11.70;9.02;;;15.50;64.70;;;;;;5013146;28;20104;-71
2022/11/14 07:21:27;;;;;;;15.68;10.30;;;15.50;64.70;;;;;;5013779;28;20062;-72
2022/11/14 07:23:54;;;;;;;12.10;9.18;;;15.40;64.60;;;;;;5012763;28;20054;-71
2022/11/14 07:26:21;;;;;;;12.45;9.02;;;15.50;64.70;;;;;;5013269;28;20132;-71
2022/11/14 07:28:47;;;;;;;11.65;8.48;;;15.50;64.70;;;;;;5013023;28;20083;-72
2022/11/14 07:31:17;;;;;;;12.10;9.10;;;15.50;64.70;;;;;;5013391;28;20434;-72
2022/11/14 07:33:44;;;;;;;12.88;9.32;;;15.50;64.70;;;;;;5022331;28;20056;-71
2022/11/14 07:36:11;;;;;;;11.75;8.98;;;15.50;64.70;;;;;;5023191;28;20041;-70
2022/11/14 07:38:38;;;;;;;11.98;8.88;;;15.50;64.70;;;;;;5023030;28;20046;-72
2022/11/14 07:41:06;;;;;;;13.80;9.20;;;15.50;64.70;;;;;;5014461;28;20364;-72
2022/11/14 07:43:33;;;;;;;13.50;9.00;;;15.50;64.70;;;;;;5013369;28;20534;-71
2022/11/14 07:46:00;;;;;;;12.35;9.43;;;15.50;64.70;;;;;;5013378;28;20069;-72
2022/11/14 07:48:28;;;;;;;13.52;9.07;;;15.50;64.70;;;;;;5022048;28;20046;-71
2022/11/14 07:50:58;;;;;;;13.38;9.38;;;15.50;64.80;;;;;;5022640;28;20152;-70
2022/11/14 07:53:25;;;;;;;13.60;9.57;;;15.50;64.80;;;;;;5017891;28;20050;-70
2022/11/14 07:55:51;;;;;;;16.38;9.73;;;15.40;64.80;;;;;;5031162;28;20053;-71
2022/11/14 07:58:18;;;;;;;13.45;9.63;;;15.50;64.80;;;;;;5021563;28;20495;-71
2022/11/14 08:00:45;;;;;;;15.80;9.88;;;15.50;64.90;;;;;;5017580;28;20057;-71
2022/11/14 08:03:11;;;;;;;12.80;9.45;;;15.50;64.90;;;;;;5021017;28;20128;-71
2022/11/14 08:05:39;;;;;;;12.95;9.60;;;15.50;64.90;;;;;;5023217;28;20071;-71
2022/11/14 08:08:06;;;;;;;12.27;9.52;;;15.50;64.90;;;;;;5038181;28;20060;-71
2022/11/14 08:10:33;;;;;;;13.73;9.13;;;15.50;64.90;;;;;;5018991;28;20502;-71
2022/11/14 08:13:00;;;;;;;13.63;9.60;;;15.40;64.80;;;;;;5022205;28;20149;-71
2022/11/14 08:15:26;;;;;;;12.68;9.45;;;15.50;64.90;;;;;;5033020;28;20363;-71
2022/11/14 08:17:55;;;;;;;13.18;9.50;;;15.50;64.90;;;;;;5031605;28;20475;-71
2022/11/14 08:20:22;;;;;;;13.93;10.02;;;15.40;64.80;;;;;;5047440;28;20088;-71
2022/11/14 08:22:50;;;;;;;14.90;9.43;;;15.40;64.80;;;;;;5030796;28;20057;-71
2022/11/14 08:25:16;;;;;;;13.55;10.02;;;15.50;65.40;;;;;;5032547;28;20414;-71
2022/11/14 08:27:43;;;;;;;11.85;9.30;;;15.40;64.80;;;;;;5032121;28;20046;-71
2022/11/14 08:30:11;;;;;;;13.63;10.30;;;15.40;64.90;;;;;;5030247;28;20063;-71
2022/11/14 08:32:37;;;;;;;16.38;10.77;;;15.40;64.90;;;;;;5031347;28;20132;-71
2022/11/14 08:35:05;;;;;;;14.30;10.73;;;15.40;64.90;;;;;;5030943;28;20065;-70
2022/11/14 08:37:31;;;;;;;13.68;10.70;;;15.40;64.90;;;;;;5031380;28;20057;-71
2022/11/14 08:39:59;;;;;;;15.10;11.07;;;15.40;64.90;;;;;;5031771;28;20089;-70
2022/11/14 08:42:26;;;;;;;17.15;12.02;;;15.40;64.80;;;;;;5030660;28;20049;-71
2022/11/14 08:44:53;;;;;;;14.52;10.50;;;15.40;64.80;;;;;;5030377;28;20057;-70
2022/11/14 08:47:19;;;;;;;15.07;10.75;;;15.40;64.80;;;;;;5031437;28;20079;-70
2022/11/14 08:49:46;;;;;;;13.23;9.93;;;15.40;64.80;;;;;;5031835;28;20047;-70
2022/11/14 08:52:13;;;;;;;13.50;10.35;;;15.40;64.80;;;;;;5031216;28;20049;-72
2022/11/14 08:54:39;;;;;;;15.52;11.35;;;15.40;64.90;;;;;;5030737;28;20424;-71
2022/11/14 08:57:08;;;;;;;13.40;10.02;;;15.40;64.90;;;;;;5032019;28;20056;-70
2022/11/14 08:59:34;;;;;;;14.15;10.63;;;15.40;64.80;;;;;;5031348;28;20059;-71
2022/11/14 09:02:01;;;;;;;12.70;9.57;;;15.40;64.80;;;;;;5030568;28;20057;-70
2022/11/14 09:04:28;;;;;;;15.65;10.88;;;15.40;64.80;;;;;;5030475;28;20491;-71
2022/11/14 09:06:54;;;;;;;16.10;11.00;;;15.40;64.80;;;;;;5030732;28;20049;-72
2022/11/14 09:09:21;;;;;;;15.30;11.15;;;15.40;64.80;;;;;;5020489;28;20050;-70
2022/11/14 09:11:48;;;;;;;14.45;11.05;;;15.40;64.80;;;;;;5012072;28;20057;-70
2022/11/14 09:14:16;;;;;;;13.95;10.60;;;15.40;64.80;;;;;;5011188;28;20054;-70
2022/11/14 09:16:43;;;;;;;16.30;11.40;;;15.40;64.80;;;;;;5010989;28;20132;-70
2022/11/14 09:19:09;;;;;;;15.18;10.80;;;15.40;64.80;;;;;;5011925;28;20229;-72
2022/11/14 09:21:36;;;;;;;15.32;10.85;;;15.40;64.80;;;;;;5012467;28;20411;-71
2022/11/14 09:24:03;;;;;;;14.57;10.90;;;15.40;64.80;;;;;;5011128;28;20145;-70
2022/11/14 09:26:30;;;;;;;14.30;11.43;;;15.40;64.80;;;;;;5011310;28;20053;-72
2022/11/14 09:28:56;;;;;;;15.88;11.45;;;15.40;64.70;;;;;;5010672;28;20551;-70
2022/11/14 09:31:24;;;;;;;13.93;10.77;;;15.40;64.80;;;;;;5011975;28;20046;-70
2022/11/14 09:33:51;;;;;;;14.30;10.60;;;15.40;64.70;;;;;;5011030;28;20137;-70
2022/11/14 09:36:18;;;;;;;13.48;10.82;;;15.40;64.70;;;;;;5010672;28;20060;-70
2022/11/14 09:38:45;;;;;;;15.35;10.52;;;15.40;64.70;;;;;;5011886;28;20050;-70
2022/11/14 09:41:22;;;;;;;15.05;11.20;;;15.40;64.70;;;;;;5010687;28;20058;-70
2022/11/14 09:44:12;;;;;;;13.35;10.65;;;15.50;64.70;;;;;;5011166;28;20442;-70
2022/11/14 09:46:43;;;;;;;14.57;10.77;;;15.50;64.70;;;;;;5010979;28;20137;-70
2022/11/14 09:49:18;;;;;;;17.60;11.98;;;15.40;64.70;;;;;;5011007;28;20068;-70
2022/11/14 09:51:47;;;;;;;14.43;10.65;;;15.50;64.80;;;;;;5010621;28;20060;-70
2022/11/14 09:54:16;;;;;;;15.35;11.50;;;15.40;64.70;;;;;;5010679;28;20080;-70
2022/11/14 09:56:43;;;;;;;15.13;11.70;;;15.50;64.70;;;;;;5010540;28;20049;-71
2022/11/14 09:59:10;;;;;;;13.35;10.80;;;15.40;64.70;;;;;;5010788;28;20058;-71
2022/11/14 10:01:42;;;;;;;13.35;10.45;;;15.50;64.70;;;;;;5010745;28;20053;-70
2022/11/14 10:04:14;;;;;;;14.02;10.45;;;15.50;64.70;;;;;;5010689;28;20058;-71
2022/11/14 10:06:42;;;;;;;14.30;10.75;;;15.50;64.70;;;;;;5010706;28;20053;-70
2022/11/14 10:09:24;;;;;;;15.35;11.35;;;15.50;64.70;;;;;;5011203;28;20049;-71
2022/11/14 10:11:53;;;;;;;14.65;11.38;;;15.50;64.70;;;;;;5010824;28;20068;-70
2022/11/14 10:14:55;;;;;;;14.05;10.73;;;15.50;64.70;;;;;;5011754;28;20062;-70
2022/11/14 10:17:39;;;;;;;13.57;10.70;;;15.50;64.60;;;;;;5010378;28;20479;-70
2022/11/14 10:20:11;;;;;;;15.30;10.93;;;15.50;64.70;;;;;;5011362;28;20484;-71
2022/11/14 10:22:46;;;;;;;14.45;10.98;;;15.50;64.70;;;;;;5014334;28;20136;-70
2022/11/14 10:25:19;;;;;;;13.50;10.07;;;15.50;64.70;;;;;;5014944;28;20055;-71
2022/11/14 10:27:51;;;;;;;13.27;10.27;;;15.50;64.70;;;;;;5014208;28;20050;-71
2022/11/14 10:30:18;;;;;;;16.73;10.88;;;15.50;64.70;;;;;;5013409;28;20410;-71
2022/11/14 10:33:03;;;;;;;15.05;11.05;;;15.50;64.70;;;;;;5014092;28;20072;-72
2022/11/14 10:35:31;;;;;;;13.48;10.43;;;15.50;64.60;;;;;;5014730;28;20060;-72
2022/11/14 10:38:00;;;;;;;13.18;9.73;;;15.50;65.20;;;;;;5015174;28;20056;-72
2022/11/14 10:40:29;;;;;;;14.73;10.77;;;15.50;64.70;;;;;;5013881;28;20060;-70
2022/11/14 10:42:57;;;;;;;12.85;10.35;;;15.50;64.70;;;;;;5013961;28;20541;-70
2022/11/14 10:45:26;;;;;;;12.90;10.23;;;15.50;64.70;;;;;;5013668;28;20479;-71
2022/11/14 10:47:54;;;;;;;13.50;10.20;;;15.50;64.70;;;;;;5013377;28;20057;-70
2022/11/14 10:50:24;;;;;;;15.40;11.05;;;15.50;64.70;;;;;;5013355;28;20433;-71
2022/11/14 10:52:52;;;;;;;13.13;10.10;;;15.50;64.70;;;;;;5013599;28;20072;-70
2022/11/14 10:55:20;;;;;;;14.88;10.90;;;15.50;64.70;;;;;;5015067;28;20065;-71
2022/11/14 10:57:47;;;;;;;14.27;10.40;;;15.50;64.70;;;;;;5025831;28;20084;-71
2022/11/14 11:00:15;;;;;;;11.90;9.60;;;15.50;64.60;;;;;;5022949;28;20049;-71
2022/11/14 11:02:50;;;;;;;13.88;10.90;;;15.50;64.60;;;;;;5025145;28;20414;-71
2022/11/14 11:05:17;;;;;;;;;;;15.50;64.60;;;;;;5021936;28;20160;-71
2022/11/14 11:13:14;;;;;;;13.65;10.63;;;15.50;64.70;;;;;;5021285;28;20041;-71
2022/11/14 11:15:42;;;;;;;13.25;9.35;;;15.50;64.70;;;;;;5023371;28;20061;-72
2022/11/14 11:18:24;;;;;;;13.02;10.00;;;15.50;64.70;;;;;;5024198;28;20037;-72
2022/11/14 11:21:02;;;;;;;12.77;9.77;;;15.50;64.60;;;;;;5022991;28;20067;-71
2022/11/14 11:23:30;;;;;;;12.52;9.88;;;15.40;65.40;;;;;;5025160;28;20053;-71
2022/11/14 11:25:59;;;;;;;14.20;10.18;;;15.50;64.70;;;;;;5024083;28;20055;-72
2022/11/14 11:28:27;;;;;;;14.45;10.63;;;13.60;63.60;;;;;;5023364;28;20563;-72
2022/11/14 11:30:57;;;;;;;12.15;10.02;;;15.50;64.70;;;;;;5022246;28;20064;-70
2022/11/14 11:33:25;;;;;;;13.20;9.90;;;15.50;64.60;;;;;;5022527;28;20052;-72
2022/11/14 11:35:53;;;;;;;14.57;10.40;;;15.50;64.70;;;;;;5023305;28;20049;-70
2022/11/14 11:38:20;;;;;;;12.95;10.18;;;15.50;64.60;;;;;;5022346;28;20046;-72
2022/11/14 11:40:50;;;;;;;14.38;9.80;;;15.50;64.60;;;;;;5030568;28;20506;-70
2022/11/14 11:43:23;;;;;;;12.95;10.32;;;15.50;64.60;;;;;;5025961;28;20470;-69
2022/11/14 11:45:49;;;;;;;12.88;10.15;;;15.50;64.60;;;;;;5020968;28;20064;-71
2022/11/14 11:48:17;;;;;;;11.85;9.52;;;15.50;64.60;;;;;;5023092;28;20057;-71
2022/11/14 11:50:44;;;;;;;12.23;9.60;;;15.50;64.60;;;;;;5023715;28;20411;-71
2022/11/14 11:53:15;;;;;;;13.00;10.13;;;15.50;64.60;;;;;;5021065;28;20042;-71
2022/11/14 11:55:43;;;;;;;12.75;10.25;;;15.50;64.60;;;;;;5024740;28;20057;-71
2022/11/14 11:58:16;;;;;;;15.43;10.18;;;15.50;64.60;;;;;;5031411;28;20133;-72
2022/11/14 12:00:42;;;;;;;14.20;10.45;;;15.50;64.60;;;;;;5022153;28;20055;-71
2022/11/14 12:03:11;;;;;;;13.43;10.07;;;15.50;64.60;;;;;;5020705;28;20098;-72
2022/11/14 12:05:43;;;;;;;12.50;9.38;;;15.50;64.60;;;;;;5022327;28;20476;-71
2022/11/14 12:08:13;;;;;;;11.77;9.65;;;15.50;64.60;;;;;;5021614;28;20384;-71
2022/11/14 12:10:41;;;;;;;13.20;10.48;;;15.50;64.60;;;;;;5018546;28;20132;-71
2022/11/14 12:13:41;;;;;;;12.40;9.48;;;15.50;64.60;;;;;;5024182;28;20061;-71
2022/11/14 12:16:15;;;;;;;12.98;10.32;;;15.50;64.60;;;;;;4987203;28;20063;-71
2022/11/14 12:19:01;;;;;;;14.82;10.10;;;15.50;64.60;;;;;;5021672;28;20045;-71
2022/11/14 12:21:37;;;;;;;12.40;9.98;;;15.50;64.60;;;;;;5019286;28;20052;-71
2022/11/14 12:24:25;;;;;;;13.32;9.95;;;15.50;64.60;;;;;;5025551;28;20049;-71
2022/11/14 12:27:00;;;;;;;13.07;9.95;;;15.50;64.50;;;;;;5031421;28;20050;-71
2022/11/14 12:29:52;;;;;;;12.60;9.70;;;15.40;64.60;;;;;;5030574;28;20480;-69
2022/11/14 12:32:21;;;;;;;12.82;10.32;;;15.40;64.50;;;;;;5031974;28;20075;-70
2022/11/14 12:34:48;;;;;;;12.40;9.63;;;15.40;64.50;;;;;;5031734;28;20136;-72
2022/11/14 12:37:16;;;;;;;13.70;10.23;;;15.50;64.50;;;;;;5030605;28;20056;-72
2022/11/14 12:39:43;;;;;;;13.25;10.70;;;15.50;64.40;;;;;;5030231;28;20053;-72
2022/11/14 12:42:13;;;;;;;13.55;10.27;;;15.50;64.40;;;;;;5028971;28;20472;-71
2022/11/14 12:44:41;;;;;;;12.60;10.07;;;15.50;64.40;;;;;;5010688;28;20060;-71
2022/11/14 12:47:16;;;;;;;14.48;10.00;;;15.50;64.30;;;;;;5010604;28;20445;-71
2022/11/14 12:50:01;;;;;;;;;;;15.50;64.30;;;;;;5011026;28;20057;-71